Airfield :







YOU CAN JOIN US ON...

 
LOGIN :

Register | Disclaimer

   EN    FR    IT 

 









Legend :    VFR   Marginal VFR   IFR   Intensive IFR   Very Intensive IFR
Visi :
Ceiling :
>= 8 km
>= 3000ft
5 to 8 km
1000 to 3000 ft
1500m to 5 km
500 to 1000 ft
800 to 1500m
200 to 500 ft
< 800m
< 200 ft
Symbols :   Thunderstorms  Fog  Heavy snow  Heavy precipitations  Wind > 20 kt






- Airport Elevation : 108 ft
- IATA code : YAY


CYAY - St Anthony

CURRENT METAR :
  • 271354Z AUTO 10014KT 9SM BKN004 OVC010 12/12 A2965 RMK SLP042

EXPIRED METARs :
  • 271323Z AUTO 11015G23KT 6SM BR OVC002 11/11 A2967 RMK SLP049
  • 271312Z AUTO 11017KT 3SM BR OVC002 11/11 A2968 RMK PRESFR SLP052
  • 271250Z AUTO 11018G23KT 3SM BR OVC002 11/11 A2969 RMK PRESFR SLP055
  • 271239Z AUTO 11017G24KT 2SM BR OVC002 11/10 A2970 RMK SLP061
  • 271224Z AUTO 12015G23KT 1SM BR VV002 11/10 A2971 RMK SLP064
  • 271213Z AUTO 12019G27KT 3/4SM BR VV002 10/10 A2970 RMK PRESFR SLP059
  • 271210Z AUTO 12021G27KT 1SM BR OVC002 10/10 A2971 RMK SLP062
  • 271140Z AUTO 12019G28KT 9SM -RA BKN004 OVC110 11/11 A2969 RMK PRESRR SLP057
  • 271118Z AUTO 10018G26KT 9SM -RA SCT004 SCT013 BKN081 OVC100 11/10 A2968 RMK PRESFR SLP053
  • 271115Z AUTO 10021G26KT 9SM -RA SCT004 BKN013 BKN076 OVC110 11/10 A2969 RMK PRESFR SLP057

TAF TAF CYAY
Valid from the 27 at 14:00 until the 28 at 02:00 UTC


271338Z 2714/2802 11015G25KT 2SM -SHRA BR OVC002
TEMPO 2714/2720 6SM -SHRA BR SCT002 OVC008
BECMG 2718/2720 23015G25KT
FM272000 23015G25KT 2SM -SHRA BR BKN006 OVC012
TEMPO 2720/2723 P6SM NSW SCT006 OVC012
FM272300 23015KT P6SM SCT008 OVC015
TEMPO 2723/2802 BKN008 OVC015 RMK FCST BASED ON AUTO OBS. NXT FCST BY 272000Z
CZQX FIR / North America



MET'MAP, your aeronautical weather chart ! - Copyright ORBIFLY December 2007 - Disclaimer

ORBIFLY MET'MAP TEAM :

Programming & Development : Alexandra Zaïnal
Concept & original design : Baudouin d'Aumeries
Assistance for programming : Marc-Olivier Méhu
Technical & hardware support : Manuel Goepfert

Contact : metmap@orbifly.com




SOURCES & CREDITS :

   NOAA